Time;durP1;ratioP1;P1;durP2;ratioP2;P2;SDS_P1;SDS_P2;PMS_P1;PMS_P2;Temp;Humidity;BMP_temperature;BMP_pressure;BME280_temperature;BME280_humidity;BME280_pressure;Samples;Min_cycle;Max_cycle;Signal;HPM_P1;HPM_P2
2021/01/24 00:00:29;;;;;;;17.17;14.00;;;;;;;3.43;80.34;97051.11;119281;1149;65197;-76
2021/01/24 00:03:05;;;;;;;19.30;15.65;;;;;;;3.40;80.26;97024.16;119249;1150;65121;-77
2021/01/24 00:05:31;;;;;;;20.40;17.60;;;;;;;3.37;80.69;97033.11;119249;1150;65168;-75
2021/01/24 00:07:59;;;;;;;19.65;15.80;;;;;;;3.35;80.45;97036.80;118811;1150;65117;-76
2021/01/24 00:10:25;;;;;;;19.50;16.70;;;;;;;3.28;80.70;97026.67;118815;1150;65124;-75
2021/01/24 00:12:52;;;;;;;17.10;13.90;;;;;;;3.27;81.09;97024.16;118670;1150;65159;-76
2021/01/24 00:15:18;;;;;;;16.03;12.60;;;;;;;3.29;80.85;97020.47;118674;1150;65191;-76
2021/01/24 00:17:44;;;;;;;14.75;11.60;;;;;;;3.29;80.51;97015.20;119224;1150;65053;-76
2021/01/24 00:20:11;;;;;;;15.17;11.47;;;;;;;3.30;81.02;97008.15;119239;1150;65161;-75
2021/01/24 00:22:37;;;;;;;15.13;11.17;;;;;;;3.35;80.84;97006.04;119196;1150;65120;-75
2021/01/24 00:25:05;;;;;;;19.45;11.20;;;;;;;3.29;80.35;96991.52;119131;1150;65200;-75
2021/01/24 00:27:31;;;;;;;14.80;11.77;;;;;;;3.24;80.65;96987.53;119207;1150;65555;-75
2021/01/24 00:29:58;;;;;;;17.20;11.50;;;;;;;3.20;80.40;96989.51;119107;1149;65130;-76
2021/01/24 00:32:24;;;;;;;14.80;11.93;;;;;;;3.14;80.65;96983.84;118637;1150;65095;-76
2021/01/24 00:34:51;;;;;;;14.83;12.97;;;;;;;3.09;81.07;96984.16;119124;1150;65127;-76
2021/01/24 00:37:17;;;;;;;15.07;12.23;;;;;;;3.06;80.82;96982.58;119052;1150;65191;-76
2021/01/24 00:39:43;;;;;;;17.57;13.65;;;;;;;3.03;80.82;96989.84;119266;1150;65149;-76
2021/01/24 00:42:10;;;;;;;17.30;13.97;;;;;;;3.07;81.42;96993.94;119249;1150;65154;-76
2021/01/24 00:44:36;;;;;;;18.40;15.35;;;;;;;3.14;81.57;96997.84;119237;1151;65123;-75
2021/01/24 00:47:02;;;;;;;21.73;16.23;;;;;;;3.23;81.22;96994.55;119238;1150;65458;-76
2021/01/24 00:49:28;;;;;;;22.37;18.07;;;;;;;3.35;81.34;96990.24;119098;1150;65128;-77
2021/01/24 00:51:55;;;;;;;23.60;19.50;;;;;;;3.42;81.36;96991.50;118680;1149;65121;-76
2021/01/24 00:54:21;;;;;;;27.70;19.87;;;;;;;3.42;80.70;96982.73;118674;1149;65140;-76
2021/01/24 00:56:47;;;;;;;26.00;20.03;;;;;;;3.35;80.85;96978.88;118721;1150;65436;-75
2021/01/24 00:59:14;;;;;;;34.97;24.03;;;;;;;3.29;80.93;96974.86;119201;1150;65206;-77
2021/01/24 01:01:41;;;;;;;28.90;21.13;;;;;;;3.21;80.87;96967.52;118691;1149;65094;-75
2021/01/24 01:04:07;;;;;;;27.80;22.65;;;;;;;3.16;81.23;96972.27;118655;1150;65085;-77
2021/01/24 01:06:34;;;;;;;25.17;22.03;;;;;;;3.14;81.04;96971.52;119047;1150;65657;-76
2021/01/24 01:09:01;;;;;;;29.53;22.80;;;;;;;3.14;81.59;96975.95;119288;1150;65076;-76
2021/01/24 01:11:27;;;;;;;32.00;25.87;;;;;;;3.12;81.46;96980.47;119224;1150;65095;-77
2021/01/24 01:13:54;;;;;;;31.77;26.80;;;;;;;3.16;81.63;96972.27;119004;1150;65580;-78
2021/01/24 01:16:20;;;;;;;40.10;27.80;;;;;;;3.21;81.48;96964.89;118632;1151;65092;-77
2021/01/24 01:18:46;;;;;;;38.97;28.53;;;;;;;3.25;81.62;96970.77;118697;1150;65133;-77
2021/01/24 01:21:13;;;;;;;35.27;26.67;;;;;;;3.24;81.32;96963.84;118609;1150;65159;-76
2021/01/24 01:23:39;;;;;;;38.03;26.70;;;;;;;3.18;81.02;96962.45;118600;1149;65194;-75
2021/01/24 01:26:06;;;;;;;35.25;25.85;;;;;;;3.19;81.06;96955.42;118684;1150;65223;-75
2021/01/24 01:28:32;;;;;;;35.93;26.10;;;;;;;3.19;80.91;96958.05;118610;1149;65054;-75
2021/01/24 01:30:59;;;;;;;34.40;26.27;;;;;;;3.21;80.93;96956.12;119194;1150;65221;-75
2021/01/24 01:33:25;;;;;;;36.13;28.53;;;;;;;3.22;81.49;96950.77;118662;1150;65107;-75
2021/01/24 01:35:51;;;;;;;43.50;29.23;;;;;;;3.19;80.87;96945.72;118612;1150;65143;-77
2021/01/24 01:38:18;;;;;;;43.40;31.23;;;;;;;3.14;80.99;96942.57;118661;1149;65079;-78
2021/01/24 01:40:44;;;;;;;40.47;30.70;;;;;;;3.10;81.07;96941.09;118688;1149;65130;-77
2021/01/24 01:43:10;;;;;;;44.47;33.37;;;;;;;3.06;81.35;96948.37;119114;1150;65146;-76
2021/01/24 01:45:37;;;;;;;38.83;28.57;;;;;;;3.00;80.99;96943.54;119167;1150;65121;-77
2021/01/24 01:48:04;;;;;;;42.23;29.50;;;;;;;2.98;81.64;96950.69;118964;1151;65220;-76
2021/01/24 01:50:30;;;;;;;43.07;29.00;;;;;;;2.98;81.22;96942.80;118666;1150;65130;-76
2021/01/24 01:52:59;;;;;;;39.17;28.20;;;;;;;2.97;81.49;96932.37;118651;1150;65153;-78
2021/01/24 01:55:27;;;;;;;42.13;30.20;;;;;;;2.99;81.40;96927.84;118686;1149;65136;-74
2021/01/24 01:57:56;;;;;;;43.77;31.43;;;;;;;3.01;81.45;96939.95;118646;1149;65111;-74
2021/01/24 02:00:23;;;;;;;44.60;33.17;;;;;;;2.98;81.37;96929.64;118609;1151;65127;-75
2021/01/24 02:03:18;;;;;;;47.33;34.17;;;;;;;3.00;81.95;96927.75;119181;1150;65207;-76
2021/01/24 02:06:08;;;;;;;43.97;32.87;;;;;;;2.97;81.66;96920.05;118861;1150;65118;-77
2021/01/24 02:08:37;;;;;;;;;;;;;;;2.93;81.53;96909.86;119197;1149;65126;-74
2021/01/24 02:11:16;;;;;;;43.73;33.30;;;;;;;2.90;81.57;96904.79;118637;1151;65156;-77
2021/01/24 02:14:05;;;;;;;44.73;31.53;;;;;;;2.91;81.76;96904.70;119034;1150;65296;-76
2021/01/24 02:16:36;;;;;;;45.45;34.63;;;;;;;2.97;81.90;96906.89;119235;1150;65050;-76
2021/01/24 02:19:09;;;;;;;50.63;38.43;;;;;;;2.91;81.49;96899.44;119248;1149;65155;-77
2021/01/24 02:21:39;;;;;;;50.40;37.03;;;;;;;2.85;81.83;96889.35;119207;1151;65124;-76
2021/01/24 02:24:11;;;;;;;55.10;39.90;;;;;;;2.88;82.11;96893.55;119283;1151;65098;-76
2021/01/24 02:26:52;;;;;;;53.73;39.50;;;;;;;2.90;81.87;96894.27;119238;1150;65252;-75
2021/01/24 02:29:32;;;;;;;55.40;38.55;;;;;;;2.93;82.18;96888.81;118709;1149;65145;-77
2021/01/24 02:32:02;;;;;;;47.43;35.08;;;;;;;2.96;82.06;96901.75;119253;1150;65114;-77
2021/01/24 02:34:32;;;;;;;45.55;34.40;;;;;;;2.99;82.06;96897.11;119296;1150;65067;-76
2021/01/24 02:37:03;;;;;;;57.43;39.47;;;;;;;3.04;82.14;96900.26;119308;1149;65117;-77
2021/01/24 02:39:31;;;;;;;50.53;38.63;;;;;;;3.06;82.14;96902.80;119206;1149;65012;-77
2021/01/24 02:41:59;;;;;;;55.33;40.03;;;;;;;3.02;82.34;96885.53;119270;1150;65149;-78
2021/01/24 02:44:27;;;;;;;55.47;40.93;;;;;;;3.01;82.52;96887.32;119290;1149;65138;-75
2021/01/24 02:46:57;;;;;;;53.43;41.50;;;;;;;2.98;82.22;96894.60;119050;1150;65125;-75
2021/01/24 02:49:28;;;;;;;50.95;38.50;;;;;;;2.99;82.07;96899.73;118972;1149;65196;-76
2021/01/24 02:51:55;;;;;;;49.53;38.00;;;;;;;3.03;81.89;96890.70;118743;1150;65274;-76
2021/01/24 02:54:23;;;;;;;47.90;37.23;;;;;;;3.04;81.98;96886.27;118673;1150;65120;-76
2021/01/24 02:56:50;;;;;;;52.70;40.65;;;;;;;3.03;82.33;96884.59;118920;1150;65091;-75
2021/01/24 02:59:16;;;;;;;50.93;40.07;;;;;;;3.04;82.33;96888.89;119282;1149;65175;-75
2021/01/24 03:01:43;;;;;;;54.10;40.60;;;;;;;3.01;82.12;96879.43;118651;1150;65114;-74
2021/01/24 03:04:09;;;;;;;56.60;43.55;;;;;;;2.97;82.24;96883.21;118625;1150;65682;-76
2021/01/24 03:06:36;;;;;;;58.30;43.47;;;;;;;2.92;82.41;96879.22;118861;1150;65098;-76
2021/01/24 03:09:04;;;;;;;56.03;42.77;;;;;;;2.90;82.00;96878.48;118712;1150;65138;-75
2021/01/24 03:11:33;;;;;;;56.10;41.40;;;;;;;2.90;82.57;96879.34;119250;1150;65121;-76
2021/01/24 03:14:10;;;;;;;51.20;38.25;;;;;;;2.88;82.26;96875.98;119295;1149;65137;-76
2021/01/24 03:16:38;;;;;;;51.13;41.87;;;;;;;2.83;82.27;96865.77;118941;1151;65252;-75
2021/01/24 03:19:10;;;;;;;55.47;39.93;;;;;;;2.86;82.74;96873.44;118691;1149;65140;-75
2021/01/24 03:21:38;;;;;;;53.10;41.27;;;;;;;2.90;82.50;96873.22;118711;1150;65075;-75
2021/01/24 03:24:06;;;;;;;59.43;44.30;;;;;;;2.88;82.77;96873.34;118665;1150;65030;-77
2021/01/24 03:26:33;;;;;;;58.30;44.85;;;;;;;2.85;82.83;96870.94;118826;1149;65105;-76
2021/01/24 03:29:00;;;;;;;62.10;46.35;;;;;;;2.84;82.74;96864.84;118674;1150;65298;-76
2021/01/24 03:31:26;;;;;;;63.33;45.50;;;;;;;2.76;82.35;96861.88;118636;1150;65173;-75
2021/01/24 03:33:53;;;;;;;60.10;43.00;;;;;;;2.71;82.93;96869.24;118613;1151;65152;-75
2021/01/24 03:36:20;;;;;;;60.80;43.17;;;;;;;2.70;83.04;96861.48;118690;1150;65596;-74
2021/01/24 03:38:46;;;;;;;63.27;43.90;;;;;;;2.68;83.17;96864.20;118629;1149;65137;-76
2021/01/24 03:41:13;;;;;;;63.40;45.47;;;;;;;2.70;83.15;96869.37;118747;1151;65180;-78
2021/01/24 03:43:39;;;;;;;64.65;49.50;;;;;;;2.68;82.65;96860.73;119006;1150;65233;-74
2021/01/24 03:46:06;;;;;;;69.10;51.40;;;;;;;2.67;83.22;96859.90;119161;1150;65143;-77
2021/01/24 03:48:32;;;;;;;74.07;54.57;;;;;;;2.64;83.04;96854.86;119212;1151;65119;-75
2021/01/24 03:50:58;;;;;;;71.13;53.20;;;;;;;2.60;83.16;96854.21;118925;1150;65484;-75
2021/01/24 03:53:25;;;;;;;67.90;53.30;;;;;;;2.58;83.04;96855.27;118623;1149;65111;-77
2021/01/24 03:55:51;;;;;;;64.40;49.30;;;;;;;2.59;83.69;96834.13;119040;1149;65121;-76
2021/01/24 03:58:17;;;;;;;65.90;51.03;;;;;;;2.57;83.08;96832.56;119009;1150;65763;-77
2021/01/24 04:00:44;;;;;;;64.40;50.57;;;;;;;2.54;83.37;96825.72;118694;1149;65117;-75
2021/01/24 04:03:10;;;;;;;58.73;47.67;;;;;;;2.56;83.84;96817.74;119076;1150;65129;-75
2021/01/24 04:05:37;;;;;;;66.33;50.83;;;;;;;2.55;83.58;96821.30;118647;1150;65468;-76
2021/01/24 04:08:03;;;;;;;67.73;51.50;;;;;;;2.48;83.68;96831.42;118741;1150;65084;-75
2021/01/24 04:10:29;;;;;;;69.50;52.60;;;;;;;2.43;83.71;96820.38;118667;1149;65098;-77
2021/01/24 04:12:56;;;;;;;66.43;50.80;;;;;;;2.39;83.57;96816.27;118948;1150;65133;-76
2021/01/24 04:15:22;;;;;;;64.40;48.60;;;;;;;2.43;84.12;96814.28;118773;1150;65157;-75
2021/01/24 04:17:48;;;;;;;61.33;46.17;;;;;;;2.41;83.82;96811.75;118704;1150;65324;-75
2021/01/24 04:20:15;;;;;;;61.75;47.30;;;;;;;2.41;83.78;96814.37;118681;1150;65119;-77
2021/01/24 04:22:41;;;;;;;61.17;46.37;;;;;;;2.45;84.24;96804.48;118667;1149;65098;-75
2021/01/24 04:25:08;;;;;;;64.70;50.33;;;;;;;2.48;83.83;96812.18;118680;1150;66273;-76
2021/01/24 04:27:35;;;;;;;66.97;50.70;;;;;;;2.52;84.15;96803.11;118649;1150;65122;-75
2021/01/24 04:30:01;;;;;;;62.35;49.95;;;;;;;2.55;83.83;96802.89;118616;1149;65185;-75
2021/01/24 04:32:28;;;;;;;61.27;46.83;;;;;;;2.56;83.84;96796.70;118664;1150;65169;-75
2021/01/24 04:34:54;;;;;;;53.73;42.60;;;;;;;2.57;83.98;96786.06;119131;1150;65116;-74
2021/01/24 04:37:21;;;;;;;55.20;42.13;;;;;;;2.56;84.10;96791.45;119149;1149;65160;-76
2021/01/24 04:39:47;;;;;;;56.50;41.27;;;;;;;2.52;84.10;96788.17;118971;1150;65358;-78
2021/01/24 04:42:13;;;;;;;55.60;42.97;;;;;;;2.48;84.11;96773.58;118491;1150;65617;-76
2021/01/24 04:44:41;;;;;;;62.80;46.50;;;;;;;2.46;84.08;96777.27;118480;1151;65175;-75
2021/01/24 04:47:09;;;;;;;57.93;45.30;;;;;;;2.45;84.20;96776.43;119058;1151;65124;-76
2021/01/24 04:49:35;;;;;;;64.47;47.23;;;;;;;2.44;84.13;96763.38;118757;1149;65124;-77
2021/01/24 04:52:03;;;;;;;63.07;46.27;;;;;;;2.43;84.33;96752.03;118795;1151;65280;-75
2021/01/24 04:54:31;;;;;;;59.03;46.70;;;;;;;2.43;84.21;96761.71;119012;1150;65155;-76
2021/01/24 04:56:58;;;;;;;59.87;47.00;;;;;;;2.45;83.97;96765.05;119305;1150;65143;-77
2021/01/24 04:59:25;;;;;;;64.50;49.70;;;;;;;2.47;84.65;96763.99;119140;1149;65111;-75
2021/01/24 05:01:53;;;;;;;66.50;51.27;;;;;;;2.51;84.37;96767.27;118967;1149;65127;-77
2021/01/24 05:04:19;;;;;;;69.20;52.87;;;;;;;2.55;84.52;96766.09;118805;1150;65181;-75
2021/01/24 05:06:45;;;;;;;75.25;55.00;;;;;;;2.59;84.45;96767.56;119020;1150;65529;-75
2021/01/24 05:09:17;;;;;;;74.30;56.60;;;;;;;2.58;84.08;96760.61;119239;1150;65117;-77
2021/01/24 05:11:52;;;;;;;71.03;52.73;;;;;;;2.62;84.33;96760.29;119228;1149;65130;-76
2021/01/24 05:14:22;;;;;;;61.60;50.40;;;;;;;2.68;84.56;96760.80;118698;1150;65118;-76
2021/01/24 05:16:49;;;;;;;60.53;46.33;;;;;;;2.67;84.07;96743.36;118899;1151;65270;-76
2021/01/24 05:19:16;;;;;;;61.45;47.70;;;;;;;2.66;84.32;96742.52;119267;1149;65207;-74
2021/01/24 05:21:43;;;;;;;61.35;47.60;;;;;;;2.61;84.04;96740.22;119244;1150;65092;-77
2021/01/24 05:24:15;;;;;;;69.20;51.07;;;;;;;2.63;84.09;96745.34;118825;1150;65094;-75
2021/01/24 05:26:47;;;;;;;72.87;58.53;;;;;;;2.62;84.02;96747.14;119261;1150;65114;-76
2021/01/24 05:29:24;;;;;;;79.20;61.00;;;;;;;2.61;84.40;96753.36;119242;1149;65228;-75
2021/01/24 05:31:52;;;;;;;82.35;56.75;;;;;;;2.64;84.47;96747.88;119202;1150;65180;-77
2021/01/24 05:34:23;;;;;;;90.47;53.50;;;;;;;2.68;84.61;96740.60;119306;1150;65139;-76
2021/01/24 05:36:50;;;;;;;80.25;53.60;;;;;;;2.68;84.04;96747.66;119281;1150;65131;-76
2021/01/24 05:39:16;;;;;;;69.77;49.40;;;;;;;2.68;84.14;96758.17;119205;1150;65162;-77
2021/01/24 05:41:50;;;;;;;72.07;48.27;;;;;;;2.70;84.20;96737.88;119153;1150;65164;-76
2021/01/24 05:44:19;;;;;;;70.70;47.70;;;;;;;2.76;84.14;96732.16;118911;1150;65133;-75
2021/01/24 05:46:46;;;;;;;79.00;50.43;;;;;;;2.78;84.39;96731.11;118683;1151;65108;-76
2021/01/24 05:49:20;;;;;;;74.20;49.30;;;;;;;2.75;84.40;96735.76;118638;1150;65210;-74
2021/01/24 05:51:59;;;;;;;71.10;47.70;;;;;;;2.71;84.21;96735.12;118951;1150;65129;-78
2021/01/24 05:54:44;;;;;;;68.65;45.50;;;;;;;2.64;84.21;96726.84;119250;1150;65124;-77
2021/01/24 05:57:12;;;;;;;69.40;45.87;;;;;;;2.61;84.23;96726.23;119230;1149;65501;-73
2021/01/24 05:59:52;;;;;;;61.10;41.73;;;;;;;2.56;83.98;96726.55;118921;1150;65118;-75
2021/01/24 06:02:20;;;;;;;54.80;38.27;;;;;;;2.53;84.14;96726.77;119266;1150;65149;-77
2021/01/24 06:04:50;;;;;;;52.83;37.23;;;;;;;2.50;84.17;96724.37;118812;1149;65165;-77
2021/01/24 06:07:18;;;;;;;56.60;37.85;;;;;;;2.49;84.09;96714.78;119194;1151;65118;-76
2021/01/24 06:09:46;;;;;;;52.27;37.07;;;;;;;2.47;84.50;96713.21;119253;1150;65034;-75
2021/01/24 06:12:15;;;;;;;53.15;39.25;;;;;;;2.44;84.18;96713.44;119257;1150;65129;-77
2021/01/24 06:14:47;;;;;;;54.40;39.05;;;;;;;2.40;84.20;96710.19;118891;1150;65095;-77
2021/01/24 06:17:43;;;;;;;54.17;38.97;;;;;;;2.36;84.70;96712.17;118697;1150;65197;-77
2021/01/24 06:20:14;;;;;;;54.93;37.73;;;;;;;2.34;84.17;96714.09;119228;1150;65241;-76
2021/01/24 06:22:43;;;;;;;52.63;36.57;;;;;;;2.33;84.29;96722.91;119216;1150;65117;-77
2021/01/24 06:25:24;;;;;;;52.23;36.07;;;;;;;2.33;84.59;96715.03;118859;1149;65124;-76
2021/01/24 06:27:55;;;;;;;52.40;37.25;;;;;;;2.32;84.79;96709.90;118824;1150;65147;-77
2021/01/24 06:30:24;;;;;;;57.97;40.10;;;;;;;2.28;84.90;96722.39;119253;1149;65094;-75
2021/01/24 06:32:51;;;;;;;;;;;;;;;2.24;85.12;96726.20;119286;1149;65628;-78
2021/01/24 06:35:23;;;;;;;64.75;44.40;;;;;;;2.22;85.03;96720.20;119253;1150;65198;-75
2021/01/24 06:37:58;;;;;;;61.97;42.63;;;;;;;2.20;85.19;96715.05;119310;1150;65114;-76
2021/01/24 06:40:27;;;;;;;54.63;39.47;;;;;;;2.19;85.22;96707.28;119265;1150;65096;-75
2021/01/24 06:42:55;;;;;;;47.30;34.43;;;;;;;2.18;85.46;96706.42;118946;1150;65065;-75
2021/01/24 06:45:21;;;;;;;56.43;38.57;;;;;;;2.19;85.34;96715.17;118594;1149;65212;-77
2021/01/24 06:47:49;;;;;;;66.77;48.00;;;;;;;2.20;84.77;96728.19;118674;1150;65125;-75
2021/01/24 06:50:42;;;;;;;58.73;41.67;;;;;;;2.27;85.42;96765.41;118634;1150;65118;-75
2021/01/24 06:53:18;;;;;;;55.43;38.20;;;;;;;2.26;85.33;96813.63;118910;1150;65063;-77
2021/01/24 06:55:58;;;;;;;63.27;44.37;;;;;;;2.20;85.20;96817.52;119282;1150;65089;-74
2021/01/24 06:58:33;;;;;;;63.03;45.30;;;;;;;2.19;85.53;96822.91;118810;1151;65150;-77
2021/01/24 07:01:19;;;;;;;65.07;47.63;;;;;;;2.22;85.81;96819.23;119300;1150;65207;-77
2021/01/24 07:03:45;;;;;;;63.50;46.90;;;;;;;2.26;85.92;96820.68;118829;1150;65117;-76
2021/01/24 07:06:34;;;;;;;65.03;47.00;;;;;;;2.28;85.70;96817.00;118623;1150;65034;-78
2021/01/24 07:09:00;;;;;;;66.53;46.03;;;;;;;2.31;85.83;96822.05;119158;1150;65091;-74
2021/01/24 07:11:53;;;;;;;67.23;48.40;;;;;;;2.38;85.58;96830.36;118864;1150;65234;-77
2021/01/24 07:14:32;;;;;;;67.70;46.27;;;;;;;2.37;85.11;96829.53;118703;1150;65190;-74
2021/01/24 07:16:58;;;;;;;69.83;46.23;;;;;;;2.35;85.30;96833.20;118708;1150;65134;-76
2021/01/24 07:19:25;;;;;;;63.50;43.45;;;;;;;2.29;84.89;96842.36;118651;1150;65121;-75
2021/01/24 07:21:53;;;;;;;67.67;46.53;;;;;;;2.24;85.25;96844.45;118676;1150;65248;-75
2021/01/24 07:24:20;;;;;;;57.17;41.37;;;;;;;2.19;84.86;96852.64;118693;1149;65159;-77
2021/01/24 07:26:46;;;;;;;60.20;41.53;;;;;;;2.15;84.71;96845.90;118806;1151;65094;-75
2021/01/24 07:29:14;;;;;;;60.60;41.77;;;;;;;2.14;85.20;96846.02;118740;1150;65108;-77
2021/01/24 07:31:41;;;;;;;59.15;41.80;;;;;;;2.17;85.24;96845.81;118900;1150;65501;-76
2021/01/24 07:34:07;;;;;;;57.27;43.03;;;;;;;2.17;85.46;96849.27;118695;1150;65590;-76
2021/01/24 07:36:34;;;;;;;55.65;39.40;;;;;;;2.16;84.94;96852.02;119164;1150;65094;-74
2021/01/24 07:39:02;;;;;;;60.00;42.20;;;;;;;2.11;85.26;96848.86;118676;1150;65149;-76
2021/01/24 07:41:31;;;;;;;61.33;45.40;;;;;;;2.09;84.79;96850.74;118674;1150;65095;-75
2021/01/24 07:43:58;;;;;;;61.00;46.23;;;;;;;2.09;84.92;96851.58;119078;1150;65120;-78
2021/01/24 07:46:25;;;;;;;58.93;44.87;;;;;;;2.11;84.77;96843.61;118687;1150;65197;-75
2021/01/24 07:48:51;;;;;;;55.03;42.07;;;;;;;2.16;85.28;96852.86;118916;1150;65524;-74
2021/01/24 07:51:17;;;;;;;57.63;43.03;;;;;;;2.19;85.00;96857.06;118779;1149;65117;-78
2021/01/24 07:53:44;;;;;;;64.03;46.43;;;;;;;2.20;85.40;96859.57;118741;1150;65152;-76
2021/01/24 07:56:11;;;;;;;60.73;44.73;;;;;;;2.23;85.19;96861.15;118699;1151;65069;-77
2021/01/24 07:58:38;;;;;;;65.10;45.27;;;;;;;2.26;85.34;96857.47;118859;1150;65122;-75
2021/01/24 08:01:05;;;;;;;58.47;45.37;;;;;;;2.27;85.29;96864.44;119218;1151;65209;-76
2021/01/24 08:03:34;;;;;;;54.73;42.73;;;;;;;2.30;85.33;96869.48;119252;1150;65117;-79
2021/01/24 08:06:11;;;;;;;54.20;38.67;;;;;;;2.30;85.36;96870.31;118930;1150;65111;-78
2021/01/24 08:08:39;;;;;;;46.95;34.10;;;;;;;2.30;85.00;96874.73;119324;1150;65079;-77
2021/01/24 08:11:06;;;;;;;50.90;34.17;;;;;;;2.28;85.23;96884.50;119191;1149;65111;-78
2021/01/24 08:13:34;;;;;;;44.83;31.80;;;;;;;2.30;84.88;96888.70;119128;1151;65051;-76
2021/01/24 08:16:05;;;;;;;44.07;31.47;;;;;;;2.31;84.69;96879.86;119012;1150;65155;-77
2021/01/24 08:18:33;;;;;;;53.93;37.93;;;;;;;2.33;84.98;96896.38;119138;1150;65484;-77
2021/01/24 08:21:01;;;;;;;52.43;37.70;;;;;;;2.31;84.12;96895.64;119275;1150;65120;-76
2021/01/24 08:23:28;;;;;;;53.93;37.77;;;;;;;2.30;83.99;96898.39;119258;1150;65116;-76
2021/01/24 08:25:57;;;;;;;45.27;31.53;;;;;;;2.30;83.87;96896.59;119267;1149;65173;-78
2021/01/24 08:28:25;;;;;;;46.70;31.50;;;;;;;2.26;84.12;96899.52;119253;1150;65509;-78
2021/01/24 08:30:52;;;;;;;45.25;30.10;;;;;;;2.21;84.18;96884.05;118974;1151;65124;-76
2021/01/24 08:33:19;;;;;;;50.23;34.37;;;;;;;2.22;83.69;96887.55;119249;1148;65094;-77
2021/01/24 08:35:48;;;;;;;45.87;29.90;;;;;;;2.22;84.04;96884.92;119228;1150;65121;-77
2021/01/24 08:38:14;;;;;;;40.63;28.73;;;;;;;2.18;84.04;96889.52;119215;1149;65123;-75
2021/01/24 08:40:41;;;;;;;39.10;28.53;;;;;;;2.17;84.36;96886.06;119156;1150;65146;-76
2021/01/24 08:43:08;;;;;;;40.07;28.57;;;;;;;2.17;84.12;96893.11;119259;1149;65159;-76
2021/01/24 08:45:36;;;;;;;36.95;27.45;;;;;;;2.16;83.97;96894.90;119009;1150;65124;-76
2021/01/24 08:48:04;;;;;;;39.73;28.27;;;;;;;2.20;84.13;96891.10;119118;1150;65149;-77
2021/01/24 08:50:33;;;;;;;37.80;27.20;;;;;;;2.28;84.33;96910.78;118905;1150;65181;-78
2021/01/24 08:53:04;;;;;;;40.75;28.50;;;;;;;2.35;84.41;96918.16;118735;1149;65195;-76
2021/01/24 08:55:45;;;;;;;40.87;26.83;;;;;;;2.42;83.85;96913.31;119063;1149;65216;-77
2021/01/24 08:58:28;;;;;;;36.27;25.03;;;;;;;2.48;84.02;96922.59;119168;1151;65098;-81
2021/01/24 09:01:06;;;;;;;35.47;23.30;;;;;;;2.43;84.50;96925.53;119201;1150;65089;-80
2021/01/24 09:03:33;;;;;;;31.90;22.07;;;;;;;2.36;84.13;96927.70;118969;1151;65186;-82
2021/01/24 09:06:19;;;;;;;27.30;19.53;;;;;;;2.29;84.33;96933.48;119361;1149;65474;-82
2021/01/24 09:08:52;;;;;;;27.33;20.20;;;;;;;2.23;84.86;96933.89;119161;1150;65146;-83
2021/01/24 09:11:21;;;;;;;28.23;19.73;;;;;;;2.19;84.41;96933.27;119041;1150;65110;-79
2021/01/24 09:13:48;;;;;;;26.87;18.77;;;;;;;2.23;84.36;96936.52;119285;1150;65149;-80
2021/01/24 09:16:15;;;;;;;30.73;21.93;;;;;;;2.27;84.27;96938.02;119366;1149;65149;-80
2021/01/24 09:18:41;;;;;;;29.37;21.37;;;;;;;2.36;83.97;96934.77;119328;1149;65133;-77
2021/01/24 09:21:07;;;;;;;28.35;20.48;;;;;;;2.42;83.75;96936.97;119186;1150;65123;-80
2021/01/24 09:23:34;;;;;;;26.40;19.20;;;;;;;2.51;83.77;96935.53;119282;1150;65231;-79
2021/01/24 09:26:00;;;;;;;33.10;22.57;;;;;;;2.54;83.70;96930.89;119280;1150;65146;-78
2021/01/24 09:28:27;;;;;;;40.45;25.20;;;;;;;2.61;84.13;96934.80;119279;1150;65095;-79
2021/01/24 09:30:53;;;;;;;39.50;24.97;;;;;;;2.63;83.23;96934.67;119294;1150;65130;-79
2021/01/24 09:33:20;;;;;;;44.63;28.30;;;;;;;2.62;83.41;96933.84;119052;1149;65115;-81
2021/01/24 09:35:47;;;;;;;50.97;31.77;;;;;;;2.67;83.60;96940.59;119143;1150;65034;-81
2021/01/24 09:38:13;;;;;;;53.57;33.80;;;;;;;2.72;83.54;96938.48;119125;1150;65127;-80
2021/01/24 09:40:40;;;;;;;57.70;35.87;;;;;;;2.78;83.10;96944.16;119352;1149;65255;-81
2021/01/24 09:43:06;;;;;;;60.25;35.85;;;;;;;2.78;83.08;96940.69;119312;1151;65178;-83
2021/01/24 09:45:34;;;;;;;61.33;36.97;;;;;;;2.80;82.92;96942.27;119040;1150;65114;-80
2021/01/24 09:48:00;;;;;;;59.67;33.73;;;;;;;2.85;83.19;96944.59;119198;1150;65124;-85
2021/01/24 09:50:32;;;;;;;56.00;34.03;;;;;;;2.92;82.68;96942.36;119138;1150;65129;-82
2021/01/24 09:52:59;;;;;;;61.77;38.40;;;;;;;2.97;82.54;96945.52;119094;1151;65204;-88
2021/01/24 09:55:25;;;;;;;66.10;39.70;;;;;;;3.03;82.79;96943.32;119159;1150;65120;-88
2021/01/24 09:57:52;;;;;;;59.90;36.15;;;;;;;3.07;82.64;96942.14;119200;1148;65152;-84
2021/01/24 10:00:20;;;;;;;56.20;35.38;;;;;;;3.11;82.65;96932.27;119095;1150;65025;-84
2021/01/24 10:02:47;;;;;;;59.93;37.87;;;;;;;3.21;82.54;96935.07;119999;1150;65185;-87
2021/01/24 10:05:16;;;;;;;54.00;34.63;;;;;;;3.33;82.18;96931.58;119265;1149;65121;-84
2021/01/24 10:07:42;;;;;;;56.70;36.50;;;;;;;3.49;81.79;96923.43;118838;1150;65120;-82
2021/01/24 10:10:10;;;;;;;58.25;36.55;;;;;;;3.60;81.78;96936.66;119007;1150;65114;-86
2021/01/24 10:12:36;;;;;;;57.50;38.10;;;;;;;3.62;81.60;96939.20;119323;1151;65212;-85
2021/01/24 10:15:03;;;;;;;52.00;35.40;;;;;;;3.57;81.71;96947.42;119354;1150;65017;-85
2021/01/24 10:17:29;;;;;;;48.23;31.40;;;;;;;3.50;81.28;96947.03;119449;1150;65117;-87
2021/01/24 10:19:56;;;;;;;47.67;31.63;;;;;;;3.39;81.31;96946.09;119272;1150;65232;-84
2021/01/24 10:22:22;;;;;;;49.30;31.47;;;;;;;3.31;82.13;96949.27;119800;1150;65063;-86
2021/01/24 10:24:48;;;;;;;47.40;28.85;;;;;;;3.26;81.51;96946.95;119427;1150;65120;-86
2021/01/24 10:27:14;;;;;;;47.90;31.43;;;;;;;3.26;81.76;96939.06;119396;1150;65124;-86
2021/01/24 10:29:41;;;;;;;42.30;25.35;;;;;;;3.41;81.53;96945.04;119520;1150;65216;-88
2021/01/24 10:32:07;;;;;;;40.90;26.07;;;;;;;3.55;81.35;96951.95;119295;1150;65108;-85
2021/01/24 10:34:33;;;;;;;42.17;27.10;;;;;;;3.61;81.04;96953.33;119393;1150;65149;-84
2021/01/24 10:37:00;;;;;;;47.90;29.70;;;;;;;3.63;80.63;96952.24;119360;1149;65124;-84
2021/01/24 10:39:26;;;;;;;44.50;27.07;;;;;;;3.64;80.78;96956.58;118975;1150;65130;-86
2021/01/24 10:41:52;;;;;;;45.12;27.67;;;;;;;3.69;80.58;96961.52;119002;1150;65255;-85
2021/01/24 10:44:19;;;;;;;37.10;25.20;;;;;;;3.74;80.68;96962.03;118966;1150;65143;-83
2021/01/24 10:46:46;;;;;;;39.50;26.93;;;;;;;3.86;80.84;96969.03;119277;1150;65187;-84
2021/01/24 10:49:12;;;;;;;35.00;23.55;;;;;;;4.02;80.46;96952.11;119145;1151;65168;-85
2021/01/24 10:51:39;;;;;;;35.77;23.23;;;;;;;4.07;80.12;96958.72;119393;1150;65220;-84
2021/01/24 10:54:05;;;;;;;35.27;23.83;;;;;;;4.02;80.03;96971.39;119387;1149;65017;-84
2021/01/24 10:56:31;;;;;;;32.37;22.50;;;;;;;3.85;79.70;96962.09;119254;1151;65121;-87
2021/01/24 10:58:58;;;;;;;30.63;20.73;;;;;;;3.70;80.46;96965.83;119218;1150;65129;-87
2021/01/24 11:01:24;;;;;;;26.87;18.10;;;;;;;3.59;79.92;96963.97;119428;1150;65129;-83
2021/01/24 11:03:51;;;;;;;25.63;18.43;;;;;;;3.46;79.91;96974.52;119410;1150;65040;-85
2021/01/24 11:06:17;;;;;;;27.67;17.97;;;;;;;3.40;79.96;96960.97;119389;1150;65158;-84
2021/01/24 11:08:43;;;;;;;25.40;17.43;;;;;;;3.48;80.22;96971.80;119471;1151;65186;-85
2021/01/24 11:11:10;;;;;;;24.30;17.43;;;;;;;3.62;79.42;96965.54;119549;1150;65490;-86
2021/01/24 11:13:36;;;;;;;23.20;17.30;;;;;;;3.74;79.89;96975.20;119255;1150;65461;-84
2021/01/24 11:16:03;;;;;;;24.05;16.75;;;;;;;3.80;79.27;96971.28;119170;1151;65185;-83
2021/01/24 11:18:29;;;;;;;22.25;16.00;;;;;;;3.81;79.35;96971.16;119374;1150;65300;-84
2021/01/24 11:20:56;;;;;;;24.57;16.53;;;;;;;3.84;79.29;96976.20;119427;1150;65111;-83
2021/01/24 11:23:22;;;;;;;21.33;16.53;;;;;;;3.82;79.41;96972.86;119491;1150;65200;-85